Time;durP1;ratioP1;P1;durP2;ratioP2;P2;SDS_P1;SDS_P2;PMS_P1;PMS_P2;Temp;Humidity;BMP_temperature;BMP_pressure;BME280_temperature;BME280_humidity;BME280_pressure;Samples;Min_cycle;Max_cycle;Signal;HPM_P1;HPM_P2
2021/01/22 10:38:44;;;;;;;;;3.50;3.50;;;;;;;;1572784;27;83253;-86
2021/01/22 10:39:30;;;;;;;;;2.00;2.00;;;;;;;;1566814;27;85783;-86
2021/01/22 10:40:15;;;;;;;;;5.00;2.00;;;;;;;;1559673;28;84685;-85
2021/01/22 10:41:04;;;;;;;;;3.00;3.00;;;;;;;;1561434;27;84678;-86
2021/01/22 10:41:49;;;;;;;;;2.00;2.00;;;;;;;;1559480;28;85215;-86
2021/01/22 10:42:34;;;;;;;;;2.67;2.00;;;;;;;;1562094;27;83576;-86
2021/01/22 10:43:20;;;;;;;;;4.33;3.67;;;;;;;;1561449;27;86313;-86
2021/01/22 10:44:05;;;;;;;;;5.00;3.67;;;;;;;;1569838;27;84848;-86
2021/01/22 10:44:50;;;;;;;;;0.00;0.00;;;;;;;;1561393;27;84595;-86
2021/01/22 10:45:36;;;;;;;;;3.67;2.00;;;;;;;;1557172;28;84621;-86
2021/01/22 10:46:21;;;;;;;;;3.67;3.67;;;;;;;;1554764;28;85124;-85
2021/01/22 10:47:06;;;;;;;;;3.33;2.00;;;;;;;;1554770;28;87691;-86
2021/01/22 10:47:51;;;;;;;;;3.00;3.00;;;;;;;;1559391;28;85035;-86
2021/01/22 10:48:37;;;;;;;;;4.33;2.00;;;;;;;;1558952;28;86584;-86
2021/01/22 10:49:22;;;;;;;;;2.33;2.33;;;;;;;;1564101;27;86075;-86
2021/01/22 10:50:07;;;;;;;;;2.00;2.00;;;;;;;;1559085;28;87468;-86
2021/01/22 10:50:53;;;;;;;;;2.00;1.00;;;;;;;;1555168;28;85721;-86
2021/01/22 10:51:39;;;;;;;;;3.33;2.00;;;;;;;;1561476;27;83470;-86
2021/01/22 10:52:24;;;;;;;;;2.00;2.00;;;;;;;;1557796;28;85192;-86
2021/01/22 10:53:09;;;;;;;;;2.00;2.00;;;;;;;;1553049;28;84679;-86
2021/01/22 10:53:55;;;;;;;;;2.67;2.67;;;;;;;;1553424;28;83876;-85
2021/01/22 10:54:40;;;;;;;;;1.33;1.33;;;;;;;;1552945;28;85095;-86
2021/01/22 10:55:25;;;;;;;;;6.33;3.33;;;;;;;;1555186;28;83675;-85
2021/01/22 10:56:10;;;;;;;;;3.33;2.33;;;;;;;;1558590;28;85570;-85
2021/01/22 10:56:55;;;;;;;;;3.00;3.00;;;;;;;;1558897;28;84478;-85
2021/01/22 10:57:41;;;;;;;;;3.33;3.33;;;;;;;;1554950;28;84589;-85
2021/01/22 10:58:26;;;;;;;;;3.00;3.00;;;;;;;;1559216;28;85849;-86
2021/01/22 10:59:11;;;;;;;;;3.00;3.00;;;;;;;;1559660;27;85961;-85
2021/01/22 10:59:57;;;;;;;;;2.00;2.00;;;;;;;;1555576;28;87393;-85
2021/01/22 11:00:42;;;;;;;;;2.33;2.33;;;;;;;;1548745;28;85761;-85
2021/01/22 11:01:28;;;;;;;;;4.67;4.67;;;;;;;;1554811;28;85159;-84
2021/01/22 11:02:13;;;;;;;;;3.67;1.67;;;;;;;;1560607;27;85087;-84
2021/01/22 11:02:59;;;;;;;;;2.00;2.00;;;;;;;;1558241;28;86765;-85
2021/01/22 11:03:44;;;;;;;;;2.00;2.00;;;;;;;;1554872;28;85851;-85
2021/01/22 11:04:29;;;;;;;;;2.00;2.00;;;;;;;;1554809;28;86578;-84
2021/01/22 11:05:14;;;;;;;;;2.33;1.33;;;;;;;;1559069;28;86857;-84
2021/01/22 11:06:00;;;;;;;;;3.33;2.00;;;;;;;;1553013;28;86955;-84
2021/01/22 11:06:45;;;;;;;;;2.00;2.00;;;;;;;;1553157;28;86971;-84
2021/01/22 11:07:30;;;;;;;;;2.00;2.00;;;;;;;;1548523;28;87184;-83
2021/01/22 11:08:15;;;;;;;;;1.00;1.00;;;;;;;;1555068;28;83953;-85
2021/01/22 11:09:02;;;;;;;;;2.00;2.00;;;;;;;;1554774;28;86825;-85
2021/01/22 11:09:47;;;;;;;;;3.00;3.00;;;;;;;;1565118;27;86047;-86
2021/01/22 11:10:32;;;;;;;;;2.67;2.67;;;;;;;;1561225;27;86459;-85
2021/01/22 11:11:18;;;;;;;;;1.67;1.67;;;;;;;;1556492;28;86837;-85
2021/01/22 11:12:04;;;;;;;;;1.67;1.67;;;;;;;;1550572;28;86402;-85
2021/01/22 11:12:50;;;;;;;;;1.00;1.00;;;;;;;;1561220;27;85404;-84
2021/01/22 11:13:35;;;;;;;;;2.67;2.67;;;;;;;;1563369;27;86888;-85
2021/01/22 11:14:20;;;;;;;;;5.00;1.67;;;;;;;;1554759;28;84118;-85
2021/01/22 11:15:06;;;;;;;;;2.00;2.00;;;;;;;;1550561;28;87032;-85
2021/01/22 11:15:51;;;;;;;;;2.00;1.00;;;;;;;;1541951;28;85245;-85
2021/01/22 11:16:36;;;;;;;;;1.33;1.33;;;;;;;;1554657;28;87081;-85
2021/01/22 11:17:22;;;;;;;;;1.00;1.00;;;;;;;;1554894;28;85761;-85
2021/01/22 11:18:07;;;;;;;;;3.67;1.67;;;;;;;;1556922;28;85408;-85
2021/01/22 11:18:52;;;;;;;;;3.00;2.00;;;;;;;;1562580;27;86327;-85
2021/01/22 11:19:37;;;;;;;;;2.00;2.00;;;;;;;;1562878;27;87181;-85
2021/01/22 11:20:22;;;;;;;;;1.67;1.67;;;;;;;;1556951;28;86654;-85
2021/01/22 11:21:08;;;;;;;;;1.00;1.00;;;;;;;;1552404;28;87491;-86
2021/01/22 11:21:53;;;;;;;;;3.67;3.00;;;;;;;;1555119;28;83156;-85
2021/01/22 11:22:38;;;;;;;;;1.33;1.33;;;;;;;;1553565;28;83527;-85
2021/01/22 11:23:24;;;;;;;;;5.00;2.00;;;;;;;;1565237;27;83416;-85
2021/01/22 11:24:09;;;;;;;;;2.67;2.67;;;;;;;;1569707;27;83181;-85
2021/01/22 11:24:54;;;;;;;;;2.00;2.00;;;;;;;;1569046;27;83461;-85
2021/01/22 11:25:39;;;;;;;;;3.00;2.00;;;;;;;;1563230;27;83004;-85
2021/01/22 11:26:25;;;;;;;;;1.00;1.00;;;;;;;;1567309;27;83553;-85
2021/01/22 11:27:10;;;;;;;;;2.67;1.67;;;;;;;;1578104;27;82993;-85
2021/01/22 11:27:55;;;;;;;;;1.00;1.00;;;;;;;;1569446;27;83724;-85
2021/01/22 11:28:40;;;;;;;;;2.00;1.33;;;;;;;;1559269;27;83615;-86
2021/01/22 11:29:26;;;;;;;;;1.00;1.00;;;;;;;;1548349;28;83621;-84
2021/01/22 11:30:11;;;;;;;;;1.00;1.00;;;;;;;;1551435;28;83483;-84
2021/01/22 11:30:56;;;;;;;;;1.00;1.00;;;;;;;;1554500;28;83553;-84
2021/01/22 11:31:41;;;;;;;;;0.00;0.00;;;;;;;;1552361;28;83588;-85
2021/01/22 11:32:27;;;;;;;;;1.67;1.67;;;;;;;;1546600;28;83435;-85
2021/01/22 11:33:12;;;;;;;;;1.00;1.00;;;;;;;;1550553;28;83573;-84
2021/01/22 11:33:57;;;;;;;;;1.67;1.67;;;;;;;;1548025;28;83838;-84
2021/01/22 11:34:43;;;;;;;;;1.00;1.00;;;;;;;;1548177;28;83362;-84
2021/01/22 11:35:28;;;;;;;;;4.00;2.00;;;;;;;;1554600;28;83330;-85
2021/01/22 11:36:13;;;;;;;;;2.33;2.33;;;;;;;;1552615;28;83599;-85
2021/01/22 11:36:58;;;;;;;;;1.00;1.00;;;;;;;;1554433;28;83245;-85
2021/01/22 11:37:45;;;;;;;;;2.00;1.00;;;;;;;;1560436;27;83548;-84
2021/01/22 11:38:30;;;;;;;;;1.25;1.00;;;;;;;;1558895;28;83511;-85
2021/01/22 11:39:15;;;;;;;;;1.33;1.33;;;;;;;;1556699;28;83294;-85
2021/01/22 11:40:00;;;;;;;;;1.00;1.00;;;;;;;;1548452;28;83626;-84
2021/01/22 11:40:46;;;;;;;;;1.00;1.00;;;;;;;;1548549;28;83112;-85
2021/01/22 11:41:31;;;;;;;;;2.33;2.00;;;;;;;;1554774;28;83105;-84
2021/01/22 11:42:16;;;;;;;;;0.67;0.67;;;;;;;;1567211;27;83620;-85
2021/01/22 11:43:01;;;;;;;;;2.00;2.00;;;;;;;;1567522;27;83650;-85
2021/01/22 11:43:46;;;;;;;;;1.00;1.00;;;;;;;;1556482;28;84850;-85
2021/01/22 11:44:32;;;;;;;;;2.00;1.33;;;;;;;;1556511;28;83598;-84
2021/01/22 11:45:17;;;;;;;;;3.00;3.00;;;;;;;;1561243;27;83945;-84
2021/01/22 11:46:02;;;;;;;;;2.00;2.00;;;;;;;;1561436;27;83573;-84
2021/01/22 11:46:48;;;;;;;;;1.33;1.33;;;;;;;;1558772;28;86218;-83
2021/01/22 11:47:33;;;;;;;;;2.00;2.00;;;;;;;;1552787;28;85762;-84
2021/01/22 11:48:18;;;;;;;;;1.33;1.33;;;;;;;;1547139;28;86208;-84
2021/01/22 11:49:04;;;;;;;;;1.00;1.00;;;;;;;;1548606;28;86149;-85
2021/01/22 11:49:49;;;;;;;;;4.00;2.00;;;;;;;;1550511;28;86538;-84
2021/01/22 11:50:34;;;;;;;;;3.00;2.00;;;;;;;;1548652;28;86157;-84
2021/01/22 11:51:19;;;;;;;;;1.00;1.00;;;;;;;;1542442;28;85235;-85
2021/01/22 11:52:05;;;;;;;;;1.67;1.67;;;;;;;;1542207;28;84991;-84
2021/01/22 11:52:50;;;;;;;;;0.00;0.00;;;;;;;;1538239;28;86417;-84
2021/01/22 11:53:35;;;;;;;;;1.33;1.33;;;;;;;;1542359;28;86496;-84
2021/01/22 11:54:20;;;;;;;;;1.00;1.00;;;;;;;;1556497;28;86362;-84
2021/01/22 11:55:06;;;;;;;;;2.00;0.00;;;;;;;;1556728;28;86151;-84
2021/01/22 11:55:51;;;;;;;;;1.00;1.00;;;;;;;;1552455;28;86470;-86
2021/01/22 11:56:36;;;;;;;;;1.67;1.00;;;;;;;;1544394;28;84853;-84
2021/01/22 11:57:21;;;;;;;;;3.00;3.00;;;;;;;;1550271;28;83889;-83
2021/01/22 11:58:07;;;;;;;;;1.67;1.00;;;;;;;;1554603;28;84094;-84
2021/01/22 11:58:52;;;;;;;;;2.33;2.33;;;;;;;;1554270;28;86672;-83
2021/01/22 11:59:38;;;;;;;;;2.00;1.00;;;;;;;;1548327;28;85225;-83
2021/01/22 12:00:23;;;;;;;;;1.33;1.00;;;;;;;;1550543;28;86169;-84
2021/01/22 12:01:08;;;;;;;;;1.00;1.00;;;;;;;;1548364;28;86231;-83
2021/01/22 12:01:54;;;;;;;;;2.00;2.00;;;;;;;;1550542;28;83600;-84
2021/01/22 12:02:39;;;;;;;;;1.33;1.33;;;;;;;;1562899;27;86654;-83
2021/01/22 12:03:25;;;;;;;;;1.00;1.00;;;;;;;;1560825;28;86282;-84
2021/01/22 12:04:10;;;;;;;;;1.50;1.50;;;;;;;;1555184;28;85530;-83
2021/01/22 12:04:55;;;;;;;;;3.00;1.33;;;;;;;;1550399;28;87566;-84
2021/01/22 12:05:41;;;;;;;;;2.00;2.00;;;;;;;;1554764;28;86910;-84
2021/01/22 12:06:26;;;;;;;;;3.00;1.67;;;;;;;;1560946;28;86474;-84
2021/01/22 12:07:11;;;;;;;;;6.00;4.33;;;;;;;;1556603;28;86921;-83
2021/01/22 12:07:56;;;;;;;;;3.50;3.50;;;;;;;;1558995;28;83518;-84
2021/01/22 12:08:42;;;;;;;;;7.00;4.00;;;;;;;;1550751;28;87105;-85
2021/01/22 12:09:27;;;;;;;;;3.00;2.67;;;;;;;;1548505;28;87251;-84
2021/01/22 12:10:12;;;;;;;;;3.25;3.25;;;;;;;;1550417;28;86573;-83
2021/01/22 12:10:58;;;;;;;;;2.00;2.00;;;;;;;;1548455;28;85524;-84
2021/01/22 12:11:43;;;;;;;;;3.00;3.00;;;;;;;;1544329;28;86893;-84
2021/01/22 12:12:28;;;;;;;;;2.00;2.00;;;;;;;;1550414;28;86321;-85
2021/01/22 12:13:14;;;;;;;;;2.00;2.00;;;;;;;;1546334;28;85378;-84
2021/01/22 12:13:59;;;;;;;;;2.67;2.67;;;;;;;;1542316;28;85939;-84
2021/01/22 12:14:44;;;;;;;;;2.33;2.33;;;;;;;;1542296;28;86908;-83
2021/01/22 12:15:30;;;;;;;;;4.00;4.00;;;;;;;;1538251;28;86974;-84
2021/01/22 12:16:15;;;;;;;;;3.00;2.00;;;;;;;;1550451;28;86773;-84
2021/01/22 12:17:00;;;;;;;;;3.50;3.00;;;;;;;;1548230;28;87316;-83
2021/01/22 12:17:45;;;;;;;;;1.75;1.75;;;;;;;;1542421;28;87070;-84
2021/01/22 12:18:31;;;;;;;;;3.25;3.25;;;;;;;;1544440;28;85404;-84
2021/01/22 12:19:17;;;;;;;;;2.25;2.25;;;;;;;;1546518;28;87093;-83
2021/01/22 12:20:02;;;;;;;;;4.25;4.25;;;;;;;;1554135;28;82947;-83
2021/01/22 12:20:48;;;;;;;;;3.00;3.00;;;;;;;;1551442;28;86955;-84
2021/01/22 12:21:33;;;;;;;;;4.25;2.50;;;;;;;;1562142;28;85128;-83
2021/01/22 12:22:18;;;;;;;;;2.00;2.00;;;;;;;;1561489;28;84390;-84
2021/01/22 12:23:04;;;;;;;;;4.50;2.25;;;;;;;;1559404;28;83273;-82
2021/01/22 12:23:49;;;;;;;;;3.50;2.00;;;;;;;;1549884;28;84514;-85
2021/01/22 12:24:34;;;;;;;;;2.00;2.00;;;;;;;;1554913;28;84494;-84
2021/01/22 12:25:19;;;;;;;;;4.33;3.00;;;;;;;;1544238;28;85284;-83
2021/01/22 12:26:05;;;;;;;;;2.33;2.33;;;;;;;;1544837;28;85380;-84
2021/01/22 12:26:50;;;;;;;;;1.00;1.00;;;;;;;;1550370;28;85181;-84
2021/01/22 12:27:35;;;;;;;;;2.00;2.00;;;;;;;;1556144;27;83503;-83
2021/01/22 12:28:20;;;;;;;;;2.00;2.00;;;;;;;;1560337;27;85426;-84
2021/01/22 12:29:06;;;;;;;;;2.33;2.00;;;;;;;;1550441;28;85140;-84
2021/01/22 12:29:51;;;;;;;;;2.00;2.00;;;;;;;;1541998;28;85567;-84
2021/01/22 12:30:36;;;;;;;;;5.67;3.00;;;;;;;;1544120;28;85257;-84
2021/01/22 12:31:21;;;;;;;;;1.00;1.00;;;;;;;;1543995;28;85468;-84
2021/01/22 12:32:07;;;;;;;;;1.00;1.00;;;;;;;;1541958;28;85303;-84
2021/01/22 12:32:52;;;;;;;;;1.67;1.33;;;;;;;;1537750;28;84501;-83
2021/01/22 12:33:37;;;;;;;;;2.00;2.00;;;;;;;;1544242;28;83301;-83
2021/01/22 12:34:24;;;;;;;;;1.00;1.00;;;;;;;;1544032;28;85448;-86
2021/01/22 12:35:10;;;;;;;;;3.00;2.00;;;;;;;;1554242;28;84509;-83
2021/01/22 12:35:55;;;;;;;;;2.00;2.00;;;;;;;;1556573;28;83945;-83
2021/01/22 12:36:40;;;;;;;;;1.00;1.00;;;;;;;;1552408;28;84405;-84
2021/01/22 12:37:25;;;;;;;;;1.00;1.00;;;;;;;;1548165;28;84957;-85
2021/01/22 12:38:11;;;;;;;;;1.00;1.00;;;;;;;;1554274;28;84144;-86
2021/01/22 12:38:56;;;;;;;;;1.00;1.00;;;;;;;;1554410;28;84358;-84
2021/01/22 12:39:41;;;;;;;;;2.00;2.00;;;;;;;;1546147;28;84703;-84
2021/01/22 12:40:26;;;;;;;;;2.00;2.00;;;;;;;;1539066;28;84064;-84
2021/01/22 12:41:12;;;;;;;;;2.00;2.00;;;;;;;;1549983;28;83597;-84
2021/01/22 12:41:57;;;;;;;;;2.00;2.00;;;;;;;;1559228;27;85390;-84
2021/01/22 12:42:42;;;;;;;;;2.00;2.00;;;;;;;;1558627;28;84070;-84
2021/01/22 12:43:28;;;;;;;;;3.25;3.25;;;;;;;;1558698;28;86382;-84
2021/01/22 12:44:13;;;;;;;;;2.33;1.67;;;;;;;;1552521;28;85007;-84
2021/01/22 12:44:58;;;;;;;;;2.67;1.00;;;;;;;;1554422;28;83743;-84
2021/01/22 12:45:43;;;;;;;;;2.00;2.00;;;;;;;;1556667;28;85149;-83
2021/01/22 12:46:29;;;;;;;;;1.67;1.00;;;;;;;;1552601;28;85436;-84
2021/01/22 12:47:14;;;;;;;;;2.00;2.00;;;;;;;;1546618;28;85607;-83
2021/01/22 12:47:59;;;;;;;;;2.50;2.50;;;;;;;;1556512;28;86113;-84
2021/01/22 12:48:44;;;;;;;;;3.00;3.00;;;;;;;;1556233;28;86874;-84
2021/01/22 12:49:30;;;;;;;;;2.00;2.00;;;;;;;;1558650;28;85352;-84
2021/01/22 12:50:15;;;;;;;;;0.00;0.00;;;;;;;;1560428;28;83851;-84
2021/01/22 12:51:00;;;;;;;;;0.67;0.00;;;;;;;;1556472;28;85100;-84
2021/01/22 12:51:45;;;;;;;;;2.50;2.00;;;;;;;;1552220;28;86634;-84
2021/01/22 12:52:30;;;;;;;;;1.00;1.00;;;;;;;;1550189;28;83233;-84
2021/01/22 12:53:16;;;;;;;;;3.33;2.00;;;;;;;;1554198;28;85203;-84
2021/01/22 12:54:01;;;;;;;;;1.00;1.00;;;;;;;;1548077;28;86505;-84
2021/01/22 12:54:46;;;;;;;;;2.00;2.00;;;;;;;;1548028;28;85301;-83
2021/01/22 12:55:31;;;;;;;;;0.00;0.00;;;;;;;;1552111;28;86194;-85
2021/01/22 12:56:17;;;;;;;;;2.00;2.00;;;;;;;;1551108;27;84538;-85
2021/01/22 12:57:03;;;;;;;;;1.67;1.67;;;;;;;;1556752;28;86721;-85
2021/01/22 12:57:48;;;;;;;;;1.00;1.00;;;;;;;;1547792;28;85548;-84
2021/01/22 12:58:33;;;;;;;;;2.67;2.67;;;;;;;;1542096;28;85074;-85
2021/01/22 12:59:18;;;;;;;;;1.67;1.00;;;;;;;;1543934;28;85410;-85
2021/01/22 13:00:05;;;;;;;;;2.67;2.67;;;;;;;;1542162;28;85983;-85
2021/01/22 13:00:50;;;;;;;;;4.25;3.00;;;;;;;;1542487;28;86412;-85
2021/01/22 13:01:35;;;;;;;;;1.00;1.00;;;;;;;;1549679;28;84988;-86
2021/01/22 13:02:20;;;;;;;;;1.00;1.00;;;;;;;;1560488;28;84897;-87
2021/01/22 13:03:06;;;;;;;;;3.33;1.00;;;;;;;;1556776;28;85027;-87
2021/01/22 13:03:52;;;;;;;;;2.00;2.00;;;;;;;;1549338;28;83684;-87
2021/01/22 13:04:38;;;;;;;;;3.00;3.00;;;;;;;;1544694;28;84527;-87
2021/01/22 13:05:24;;;;;;;;;3.00;2.00;;;;;;;;1550571;28;85852;-87
2021/01/22 13:06:09;;;;;;;;;1.25;1.25;;;;;;;;1556801;28;84638;-88
2021/01/22 13:06:54;;;;;;;;;1.00;1.00;;;;;;;;1566817;28;86127;-87
2021/01/22 13:07:41;;;;;;;;;1.67;1.67;;;;;;;;1565731;28;83716;-87
2021/01/22 13:08:26;;;;;;;;;2.00;2.00;;;;;;;;1564498;28;84121;-89
2021/01/22 13:09:11;;;;;;;;;4.00;2.00;;;;;;;;1568516;28;85235;-87
2021/01/22 13:09:56;;;;;;;;;2.00;2.00;;;;;;;;1564809;28;83966;-87
2021/01/22 13:10:42;;;;;;;;;2.00;2.00;;;;;;;;1555871;28;85229;-87
2021/01/22 13:11:27;;;;;;;;;2.00;1.00;;;;;;;;1550105;28;84929;-87
2021/01/22 13:12:12;;;;;;;;;1.00;1.00;;;;;;;;1549280;28;85034;-87
2021/01/22 13:12:57;;;;;;;;;1.00;1.00;;;;;;;;1548379;28;86785;-87
2021/01/22 13:13:43;;;;;;;;;1.33;1.33;;;;;;;;1544391;28;85095;-87
2021/01/22 13:14:28;;;;;;;;;2.00;0.67;;;;;;;;1544600;28;85090;-87
2021/01/22 13:15:13;;;;;;;;;1.00;1.00;;;;;;;;1543583;28;86589;-87
2021/01/22 13:15:59;;;;;;;;;2.00;2.00;;;;;;;;1556346;28;84058;-87
2021/01/22 13:16:44;;;;;;;;;1.00;1.00;;;;;;;;1562834;27;84907;-87
2021/01/22 13:17:29;;;;;;;;;2.33;2.00;;;;;;;;1558467;28;85563;-88
2021/01/22 13:18:14;;;;;;;;;2.00;2.00;;;;;;;;1552676;28;86455;-87
2021/01/22 13:19:00;;;;;;;;;2.00;2.00;;;;;;;;1543861;28;86692;-87
2021/01/22 13:19:45;;;;;;;;;1.00;1.00;;;;;;;;1544385;28;85265;-87
2021/01/22 13:20:30;;;;;;;;;2.33;2.33;;;;;;;;1550321;28;85738;-87
2021/01/22 13:21:16;;;;;;;;;2.67;2.33;;;;;;;;1562436;27;86053;-87
2021/01/22 13:22:01;;;;;;;;;2.00;2.00;;;;;;;;1560641;28;85887;-87
2021/01/22 13:22:46;;;;;;;;;2.00;2.00;;;;;;;;1552536;28;86636;-87
2021/01/22 13:23:31;;;;;;;;;2.00;2.00;;;;;;;;1556620;28;86856;-88
2021/01/22 13:24:18;;;;;;;;;1.00;1.00;;;;;;;;1556293;28;87602;-87
2021/01/22 13:25:04;;;;;;;;;1.00;1.00;;;;;;;;1551870;28;85366;-87
2021/01/22 13:25:49;;;;;;;;;1.75;1.75;;;;;;;;1542713;28;86009;-87
2021/01/22 13:26:35;;;;;;;;;1.67;1.67;;;;;;;;1550242;28;87074;-88
2021/01/22 13:27:20;;;;;;;;;1.00;1.00;;;;;;;;1556188;28;84031;-87
2021/01/22 13:28:05;;;;;;;;;0.00;0.00;;;;;;;;1552344;28;85524;-88
2021/01/22 13:28:51;;;;;;;;;2.67;2.67;;;;;;;;1544023;28;84430;-88
2021/01/22 13:29:36;;;;;;;;;1.00;1.00;;;;;;;;1543954;28;87726;-88
2021/01/22 13:30:21;;;;;;;;;1.33;1.33;;;;;;;;1552003;28;86654;-87
2021/01/22 13:31:07;;;;;;;;;5.67;2.00;;;;;;;;1541869;28;84973;-87
2021/01/22 13:31:52;;;;;;;;;2.33;2.33;;;;;;;;1538024;28;83978;-87
2021/01/22 13:32:38;;;;;;;;;2.00;2.00;;;;;;;;1549940;28;83594;-87
2021/01/22 13:33:23;;;;;;;;;1.00;1.00;;;;;;;;1550318;28;83544;-87
2021/01/22 13:34:09;;;;;;;;;1.67;1.67;;;;;;;;1546142;28;84509;-87
2021/01/22 13:34:54;;;;;;;;;2.67;2.67;;;;;;;;1549974;28;83613;-86
2021/01/22 13:35:39;;;;;;;;;2.00;2.00;;;;;;;;1556084;28;85996;-87
2021/01/22 13:36:24;;;;;;;;;1.33;1.33;;;;;;;;1551995;28;86139;-86
2021/01/22 13:37:10;;;;;;;;;1.67;1.67;;;;;;;;1547957;28;85249;-86
2021/01/22 13:37:55;;;;;;;;;1.33;1.00;;;;;;;;1547856;28;84638;-86
2021/01/22 13:38:40;;;;;;;;;2.33;2.33;;;;;;;;1547990;28;85167;-87
2021/01/22 13:39:25;;;;;;;;;2.67;2.00;;;;;;;;1547783;28;84971;-87
2021/01/22 13:40:15;;;;;;;;;1.00;1.00;;;;;;;;1542614;28;83521;-87
2021/01/22 13:41:01;;;;;;;;;3.00;1.50;;;;;;;;1549274;28;83548;-88
2021/01/22 13:41:46;;;;;;;;;1.67;1.00;;;;;;;;1548098;28;84078;-87
2021/01/22 13:42:31;;;;;;;;;3.00;1.00;;;;;;;;1548125;28;83726;-87
2021/01/22 13:43:17;;;;;;;;;2.00;2.00;;;;;;;;1549630;28;86096;-86
2021/01/22 13:44:02;;;;;;;;;1.00;1.00;;;;;;;;1548034;28;87143;-86
2021/01/22 13:44:47;;;;;;;;;3.00;1.33;;;;;;;;1543059;28;84513;-88
2021/01/22 13:45:32;;;;;;;;;2.00;2.00;;;;;;;;1544735;28;84643;-89
2021/01/22 13:46:18;;;;;;;;;3.00;2.00;;;;;;;;1547942;28;83589;-89
2021/01/22 13:47:03;;;;;;;;;1.00;1.00;;;;;;;;1554182;28;85083;-88
2021/01/22 13:47:48;;;;;;;;;0.67;0.67;;;;;;;;1549929;28;84887;-89
2021/01/22 13:48:34;;;;;;;;;1.33;1.33;;;;;;;;1545851;28;83654;-88
2021/01/22 13:49:19;;;;;;;;;1.00;1.00;;;;;;;;1543996;28;83551;-88
2021/01/22 13:50:04;;;;;;;;;0.00;0.00;;;;;;;;1548039;28;84025;-88
2021/01/22 13:50:50;;;;;;;;;0.33;0.00;;;;;;;;1556347;28;85118;-88
2021/01/22 13:51:35;;;;;;;;;2.00;2.00;;;;;;;;1554282;28;86329;-89
2021/01/22 13:52:20;;;;;;;;;1.00;1.00;;;;;;;;1548439;28;83639;-88
2021/01/22 13:53:05;;;;;;;;;2.00;2.00;;;;;;;;1541998;28;83718;-88
2021/01/22 13:53:51;;;;;;;;;2.00;1.67;;;;;;;;1550070;28;86291;-88
2021/01/22 13:54:36;;;;;;;;;1.00;1.00;;;;;;;;1556402;27;84645;-88
2021/01/22 13:55:22;;;;;;;;;1.00;1.00;;;;;;;;1557604;28;85134;-88
2021/01/22 13:56:07;;;;;;;;;1.00;1.00;;;;;;;;1558237;28;86996;-88
2021/01/22 13:56:53;;;;;;;;;2.33;2.00;;;;;;;;1556117;28;85902;-88
2021/01/22 13:57:38;;;;;;;;;1.33;1.33;;;;;;;;1552398;28;84586;-88
2021/01/22 13:58:23;;;;;;;;;1.67;1.67;;;;;;;;1549960;28;86027;-89
2021/01/22 13:59:09;;;;;;;;;1.00;1.00;;;;;;;;1547795;28;86717;-89
2021/01/22 13:59:55;;;;;;;;;2.00;2.00;;;;;;;;1543083;28;86293;-88
2021/01/22 14:00:40;;;;;;;;;2.00;2.00;;;;;;;;1538391;28;87223;-88
2021/01/22 14:01:25;;;;;;;;;1.33;1.00;;;;;;;;1543834;28;86323;-88
2021/01/22 14:02:10;;;;;;;;;1.00;1.00;;;;;;;;1543660;28;85323;-88
2021/01/22 14:02:56;;;;;;;;;2.67;1.00;;;;;;;;1541696;28;86256;-88
2021/01/22 14:03:41;;;;;;;;;2.33;2.33;;;;;;;;1537857;28;84401;-88
2021/01/22 14:04:26;;;;;;;;;2.00;2.00;;;;;;;;1537620;28;83936;-88
2021/01/22 14:05:13;;;;;;;;;1.00;1.00;;;;;;;;1549807;28;86184;-88
2021/01/22 14:05:58;;;;;;;;;1.00;1.00;;;;;;;;1549802;28;84753;-88
2021/01/22 14:06:43;;;;;;;;;2.67;1.00;;;;;;;;1551903;28;85936;-88
2021/01/22 14:07:28;;;;;;;;;2.33;2.33;;;;;;;;1556218;28;84028;-88
2021/01/22 14:08:14;;;;;;;;;1.00;1.00;;;;;;;;1553895;28;85706;-89
2021/01/22 14:08:59;;;;;;;;;2.00;2.00;;;;;;;;1552348;28;86282;-88
2021/01/22 14:09:44;;;;;;;;;1.00;1.00;;;;;;;;1546967;28;84877;-88
2021/01/22 14:10:29;;;;;;;;;3.33;2.33;;;;;;;;1547018;28;86204;-88
2021/01/22 14:11:15;;;;;;;;;2.00;2.00;;;;;;;;1547703;28;87185;-89
2021/01/22 14:12:00;;;;;;;;;3.33;2.00;;;;;;;;1555879;28;85923;-88
2021/01/22 14:12:45;;;;;;;;;2.00;2.00;;;;;;;;1556178;28;85156;-88
2021/01/22 14:13:30;;;;;;;;;1.33;1.33;;;;;;;;1554509;28;85763;-88
2021/01/22 14:14:16;;;;;;;;;1.33;1.33;;;;;;;;1543819;28;86045;-88
2021/01/22 14:15:01;;;;;;;;;1.00;1.00;;;;;;;;1543134;28;86461;-88
2021/01/22 14:15:46;;;;;;;;;2.00;2.00;;;;;;;;1543792;28;85055;-89
2021/01/22 14:16:32;;;;;;;;;1.33;1.33;;;;;;;;1555938;28;85604;-88
2021/01/22 14:17:17;;;;;;;;;2.67;1.00;;;;;;;;1556023;28;85365;-88
2021/01/22 14:18:02;;;;;;;;;0.00;0.00;;;;;;;;1551951;28;87498;-89
2021/01/22 14:18:48;;;;;;;;;4.00;2.00;;;;;;;;1543867;28;86669;-88
2021/01/22 14:19:33;;;;;;;;;1.67;1.67;;;;;;;;1549757;28;84041;-88
2021/01/22 14:20:18;;;;;;;;;1.67;0.33;;;;;;;;1555872;28;86918;-88
2021/01/22 14:21:04;;;;;;;;;1.00;1.00;;;;;;;;1551797;28;86080;-88
2021/01/22 14:21:49;;;;;;;;;2.00;2.00;;;;;;;;1543594;28;86390;-89
2021/01/22 14:22:34;;;;;;;;;3.00;1.67;;;;;;;;1543763;28;85273;-89
2021/01/22 14:23:20;;;;;;;;;2.00;0.67;;;;;;;;1549625;28;87300;-88
2021/01/22 14:24:05;;;;;;;;;1.00;1.00;;;;;;;;1547082;28;86370;-88
2021/01/22 14:24:50;;;;;;;;;1.00;1.00;;;;;;;;1548904;28;86179;-88
2021/01/22 14:25:36;;;;;;;;;1.33;1.33;;;;;;;;1548832;28;85634;-89
2021/01/22 14:26:22;;;;;;;;;1.00;1.00;;;;;;;;1553982;28;86709;-88
2021/01/22 14:27:07;;;;;;;;;2.50;1.00;;;;;;;;1547891;28;85579;-88
2021/01/22 14:27:54;;;;;;;;;2.00;2.00;;;;;;;;1543782;28;85829;-88
2021/01/22 14:28:39;;;;;;;;;1.00;1.00;;;;;;;;1550003;28;84463;-88
2021/01/22 14:29:24;;;;;;;;;2.00;1.00;;;;;;;;1551877;28;86312;-88
2021/01/22 14:30:10;;;;;;;;;2.00;1.00;;;;;;;;1555193;28;87672;-88
2021/01/22 14:30:55;;;;;;;;;0.33;0.33;;;;;;;;1552094;28;85471;-88
2021/01/22 14:31:40;;;;;;;;;2.00;2.00;;;;;;;;1543677;28;86019;-88
2021/01/22 14:32:26;;;;;;;;;1.67;1.00;;;;;;;;1543493;28;88010;-88
2021/01/22 14:33:11;;;;;;;;;2.33;1.67;;;;;;;;1549817;28;85685;-89
2021/01/22 14:33:56;;;;;;;;;0.67;0.33;;;;;;;;1547948;28;86806;-88
2021/01/22 14:34:41;;;;;;;;;1.33;1.00;;;;;;;;1543639;28;85674;-88
2021/01/22 14:35:27;;;;;;;;;1.00;1.00;;;;;;;;1552357;28;83443;-88
2021/01/22 14:36:12;;;;;;;;;0.67;0.67;;;;;;;;1555760;28;84402;-89
2021/01/22 14:36:57;;;;;;;;;1.00;1.00;;;;;;;;1551844;28;86142;-88
2021/01/22 14:37:44;;;;;;;;;1.00;1.00;;;;;;;;1543591;28;83797;-88
2021/01/22 14:38:29;;;;;;;;;1.00;1.00;;;;;;;;1543337;28;83500;-88
2021/01/22 14:39:15;;;;;;;;;2.33;1.00;;;;;;;;1548993;28;84840;-88
2021/01/22 14:40:00;;;;;;;;;0.00;0.00;;;;;;;;1547208;28;84537;-89
2021/01/22 14:40:45;;;;;;;;;2.00;2.00;;;;;;;;1543696;28;84252;-88
2021/01/22 14:41:30;;;;;;;;;1.00;1.00;;;;;;;;1543577;28;85681;-87
2021/01/22 14:42:16;;;;;;;;;2.00;2.00;;;;;;;;1543462;28;83858;-88
2021/01/22 14:43:01;;;;;;;;;0.33;0.33;;;;;;;;1549771;28;83279;-89
2021/01/22 14:43:47;;;;;;;;;2.00;2.00;;;;;;;;1553899;28;83264;-89
2021/01/22 14:44:32;;;;;;;;;0.67;0.67;;;;;;;;1551262;28;83532;-88
2021/01/22 14:45:17;;;;;;;;;0.00;0.00;;;;;;;;1553877;28;83392;-88
2021/01/22 14:46:02;;;;;;;;;0.67;0.67;;;;;;;;1547762;28;83714;-88
2021/01/22 14:46:48;;;;;;;;;2.33;1.33;;;;;;;;1549904;28;85420;-88
2021/01/22 14:47:33;;;;;;;;;0.00;0.00;;;;;;;;1549817;28;83518;-88
2021/01/22 14:48:18;;;;;;;;;1.00;1.00;;;;;;;;1559643;27;84930;-88
2021/01/22 14:49:03;;;;;;;;;1.00;1.00;;;;;;;;1556029;28;84573;-88
2021/01/22 14:49:49;;;;;;;;;0.33;0.33;;;;;;;;1552178;28;84532;-88
2021/01/22 14:50:34;;;;;;;;;0.33;0.33;;;;;;;;1543314;28;83580;-88
2021/01/22 14:51:19;;;;;;;;;1.67;1.00;;;;;;;;1549387;28;84298;-88
2021/01/22 14:52:05;;;;;;;;;0.67;0.00;;;;;;;;1553840;28;84649;-88
2021/01/22 14:52:50;;;;;;;;;0.33;0.33;;;;;;;;1553934;28;83065;-89
2021/01/22 14:53:35;;;;;;;;;2.00;0.00;;;;;;;;1560257;28;83354;-88
2021/01/22 14:54:21;;;;;;;;;1.00;1.00;;;;;;;;1552404;28;83741;-88
2021/01/22 14:55:06;;;;;;;;;0.00;0.00;;;;;;;;1551649;28;86101;-88
2021/01/22 14:55:51;;;;;;;;;1.00;1.00;;;;;;;;1543729;28;83001;-88
2021/01/22 14:56:37;;;;;;;;;2.00;1.67;;;;;;;;1546217;28;84691;-88
2021/01/22 14:57:22;;;;;;;;;3.00;1.00;;;;;;;;1543541;28;83774;-89
2021/01/22 14:58:09;;;;;;;;;0.00;0.00;;;;;;;;1543605;28;84405;-88
2021/01/22 14:58:54;;;;;;;;;4.00;1.00;;;;;;;;1543421;28;84610;-89
2021/01/22 14:59:39;;;;;;;;;1.33;1.00;;;;;;;;1540908;28;83217;-88
2021/01/22 15:00:24;;;;;;;;;0.67;0.67;;;;;;;;1555988;28;85339;-88
2021/01/22 15:01:09;;;;;;;;;1.00;1.00;;;;;;;;1553902;28;84646;-88
2021/01/22 15:01:55;;;;;;;;;1.67;1.00;;;;;;;;1551660;28;87016;-88
2021/01/22 15:02:40;;;;;;;;;0.67;0.67;;;;;;;;1543541;28;86510;-88
2021/01/22 15:03:25;;;;;;;;;1.00;1.00;;;;;;;;1547798;28;86341;-88
2021/01/22 15:04:11;;;;;;;;;1.00;1.00;;;;;;;;1543595;28;84809;-88
2021/01/22 15:04:56;;;;;;;;;1.00;1.00;;;;;;;;1541450;28;86023;-88
2021/01/22 15:05:41;;;;;;;;;1.75;1.75;;;;;;;;1543606;28;83617;-88
2021/01/22 15:06:26;;;;;;;;;2.00;1.00;;;;;;;;1543276;28;85717;-88
2021/01/22 15:07:12;;;;;;;;;0.67;0.67;;;;;;;;1541129;28;86157;-88
2021/01/22 15:07:57;;;;;;;;;2.00;1.00;;;;;;;;1543432;28;85663;-88
2021/01/22 15:08:43;;;;;;;;;1.00;1.00;;;;;;;;1555002;28;84697;-88
2021/01/22 15:09:28;;;;;;;;;0.33;0.33;;;;;;;;1560042;28;85608;-88
2021/01/22 15:10:13;;;;;;;;;1.00;1.00;;;;;;;;1551037;28;85808;-88